Algoma, Wisconsin
Current Conditions -  °F | °C
As of 12:15 PM on Thursday 18 Dec 2014 (Local Time) from KSUE Reporting Station
Overcast Overcast  
Wind Chill: -7°   Ceiling: 2000
Heat Index: -3°   Visibility: 10mi
Dew Point: -7°   Wind: 7mph
Humidity: 74%   Direction: 340°NNW
Pressure: 30.26"   Gusts: NA
Location:  44.61°N, 87.43°W
Report Text: KSUE 181815Z AUTO 34006KT 10SM OVC020 M03/M07 A3026 RMK AO1
Loading
Personal Weather Stations






























Interactive Weather Map New forecast layout! Learn more

10-Day Weather Forecast

Advertisements
Track Severe Weather on mobile